Time;durP1;ratioP1;P1;durP2;ratioP2;P2;SDS_P1;SDS_P2;PMS_P1;PMS_P2;Temp;Humidity;BMP_temperature;BMP_pressure;BME280_temperature;BME280_humidity;BME280_pressure;Samples;Min_cycle;Max_cycle;Signal;HPM_P1;HPM_P2
2021/05/23 00:01:29;;;;;;;3.47;1.85;;;;;;;21.22;31.79;100455.00;5034669;28;20032;-78
2021/05/23 00:03:54;;;;;;;6.90;2.78;;;;;;;21.28;31.67;100453.47;5034378;28;20038;-78
2021/05/23 00:06:20;;;;;;;6.05;2.63;;;;;;;21.19;31.87;100453.03;5034584;28;20026;-78
2021/05/23 00:08:45;;;;;;;3.38;2.00;;;;;;;21.19;31.73;100450.25;5034785;28;20030;-78
2021/05/23 00:11:11;;;;;;;3.50;2.25;;;;;;;21.18;31.70;100451.44;5034471;28;20025;-78
2021/05/23 00:13:42;;;;;;;3.50;1.83;;;;;;;21.13;31.69;100457.38;5034703;28;20021;-75
2021/05/23 00:16:11;;;;;;;11.20;2.38;;;;;;;20.99;31.99;100447.78;5033457;28;20048;-76
2021/05/23 00:18:40;;;;;;;2.85;1.58;;;;;;;20.98;31.94;100440.66;5034227;28;20112;-76
2021/05/23 00:21:07;;;;;;;3.80;1.70;;;;;;;21.04;31.75;100441.88;5034423;28;20049;-76
2021/05/23 00:23:33;;;;;;;3.47;1.50;;;;;;;21.06;31.56;100441.47;5034034;28;20108;-76
2021/05/23 00:25:59;;;;;;;3.72;1.63;;;;;;;21.13;31.53;100429.59;5034476;28;20112;-76
2021/05/23 00:28:24;;;;;;;3.47;1.85;;;;;;;21.11;31.89;100440.31;5034222;28;20044;-76
2021/05/23 00:30:50;;;;;;;3.72;1.63;;;;;;;21.09;31.66;100437.13;5034016;28;20053;-76
2021/05/23 00:33:16;;;;;;;3.78;1.67;;;;;;;21.05;31.40;100424.00;5034108;28;20033;-76
2021/05/23 00:35:42;;;;;;;4.13;2.00;;;;;;;21.02;31.69;100413.69;5030978;28;20025;-75
2021/05/23 00:38:09;;;;;;;4.68;2.08;;;;;;;20.93;31.72;100409.66;5033558;28;20026;-76
2021/05/23 00:40:36;;;;;;;2.75;1.85;;;;;;;20.86;31.81;100415.22;5032880;28;20036;-76
2021/05/23 00:43:14;;;;;;;4.10;1.90;;;;;;;20.80;31.88;100412.03;5033325;28;20032;-76
2021/05/23 00:45:40;;;;;;;4.28;1.95;;;;;;;20.84;31.74;100407.25;5034089;28;20025;-76
2021/05/23 00:48:06;;;;;;;2.85;1.70;;;;;;;20.76;32.05;100412.00;5034227;28;20116;-76
2021/05/23 00:50:32;;;;;;;4.35;2.00;;;;;;;20.89;31.75;100412.44;5033802;28;20080;-76
2021/05/23 00:53:00;;;;;;;5.10;1.98;;;;;;;20.92;31.70;100406.09;5034187;28;20415;-76
2021/05/23 00:55:25;;;;;;;4.20;2.00;;;;;;;20.93;31.73;100398.56;5033582;28;20025;-76
2021/05/23 00:57:51;;;;;;;4.38;2.47;;;;;;;20.92;31.76;100403.31;5033953;28;20022;-76
2021/05/23 01:00:42;;;;;;;4.57;2.20;;;;;;;20.86;31.95;100407.69;5033972;28;20025;-76
2021/05/23 01:03:29;;;;;;;3.28;2.33;;;;;;;20.93;31.79;100409.66;5033623;28;20021;-76
2021/05/23 01:06:05;;;;;;;3.20;2.00;;;;;;;20.98;31.35;100389.84;5033592;28;20068;-76
2021/05/23 01:08:36;;;;;;;8.30;2.92;;;;;;;20.89;31.84;100393.00;5033763;28;20021;-77
2021/05/23 01:11:03;;;;;;;6.65;2.42;;;;;;;20.94;31.75;100397.41;5033363;28;20026;-76
2021/05/23 01:13:36;;;;;;;5.85;2.58;;;;;;;20.89;31.71;100386.66;5033586;28;20033;-76
2021/05/23 01:16:23;;;;;;;4.13;2.10;;;;;;;20.89;31.85;100389.44;5033338;28;20032;-76
2021/05/23 01:18:51;;;;;;;2.35;1.83;;;;;;;20.97;31.68;100377.97;5033571;28;20527;-76
2021/05/23 01:21:20;;;;;;;5.00;2.17;;;;;;;21.02;31.64;100371.25;5033515;28;20025;-76
2021/05/23 01:23:50;;;;;;;8.20;2.30;;;;;;;20.98;31.67;100376.75;5033159;28;20029;-76
2021/05/23 01:26:17;;;;;;;4.80;2.78;;;;;;;21.00;31.52;100373.59;5033414;28;20361;-76
2021/05/23 01:28:44;;;;;;;5.63;2.15;;;;;;;20.96;31.75;100373.59;5033147;28;20033;-76
2021/05/23 01:31:15;;;;;;;4.75;2.13;;;;;;;20.87;32.09;100361.28;5032784;28;20033;-76
2021/05/23 01:33:42;;;;;;;2.95;2.03;;;;;;;20.91;31.73;100368.41;5033080;28;20530;-76
2021/05/23 01:36:11;;;;;;;2.78;1.90;;;;;;;20.91;31.61;100357.31;5036064;28;20030;-78
2021/05/23 01:38:37;;;;;;;5.00;2.33;;;;;;;20.89;31.79;100350.56;5020782;28;20049;-76
2021/05/23 01:41:07;;;;;;;5.10;2.28;;;;;;;20.85;31.73;100353.31;5033121;28;20267;-75
2021/05/23 01:43:33;;;;;;;;;;;;;;;20.63;32.09;100351.66;5033889;28;20064;-76
2021/05/23 01:46:00;;;;;;;3.58;2.33;;;;;;;20.85;31.79;100347.75;5032999;28;19987;-76
2021/05/23 01:48:26;;;;;;;6.65;2.55;;;;;;;20.77;31.97;100346.94;5032991;28;20029;-76
2021/05/23 01:50:52;;;;;;;3.47;2.20;;;;;;;20.72;32.01;100338.22;5032786;28;20433;-76
2021/05/23 01:53:18;;;;;;;5.72;2.80;;;;;;;20.83;31.84;100335.47;5032420;28;20061;-76
2021/05/23 01:55:44;;;;;;;3.65;2.40;;;;;;;20.84;32.09;100335.06;5032682;28;20034;-76
2021/05/23 01:58:09;;;;;;;5.30;2.33;;;;;;;20.84;32.00;100335.06;5033239;28;20041;-76
2021/05/23 02:00:38;;;;;;;3.53;2.38;;;;;;;20.81;32.02;100335.06;5032870;28;20075;-76
2021/05/23 02:03:07;;;;;;;4.35;1.80;;;;;;;20.55;32.46;100333.38;5032687;28;20030;-75
2021/05/23 02:05:34;;;;;;;5.03;1.98;;;;;;;20.64;32.14;100319.94;5032560;28;20029;-76
2021/05/23 02:08:01;;;;;;;3.38;2.30;;;;;;;20.56;32.27;100315.56;5032511;28;20420;-76
2021/05/23 02:10:28;;;;;;;3.05;2.10;;;;;;;20.68;32.20;100315.97;5031262;28;20029;-76
2021/05/23 02:12:55;;;;;;;4.40;2.08;;;;;;;20.63;32.20;100312.78;5032642;28;20053;-76
2021/05/23 02:15:21;;;;;;;5.05;1.83;;;;;;;20.62;32.22;100312.00;5032478;28;20033;-76
2021/05/23 02:17:48;;;;;;;7.32;2.30;;;;;;;20.53;32.40;100300.47;5032365;28;20040;-76
2021/05/23 02:20:17;;;;;;;4.15;1.83;;;;;;;20.55;32.21;100306.41;5032397;28;20033;-76
2021/05/23 02:22:46;;;;;;;3.95;1.85;;;;;;;20.60;32.45;100297.72;5032799;28;20513;-76
2021/05/23 02:25:15;;;;;;;3.67;1.80;;;;;;;20.61;32.22;100293.75;5032145;28;20392;-76
2021/05/23 02:27:51;;;;;;;5.50;2.17;;;;;;;20.66;32.04;100292.59;5032502;28;20411;-76
2021/05/23 02:30:23;;;;;;;4.40;1.48;;;;;;;20.57;32.14;100284.63;5032561;28;20032;-76
2021/05/23 02:32:50;;;;;;;2.92;1.92;;;;;;;20.72;31.79;100282.69;5032492;28;20076;-76
2021/05/23 02:35:17;;;;;;;3.88;1.73;;;;;;;20.65;31.71;100277.91;5031963;28;20121;-76
2021/05/23 02:37:43;;;;;;;3.00;1.55;;;;;;;20.50;32.32;100263.19;5032364;28;20108;-76
2021/05/23 02:40:12;;;;;;;3.55;1.60;;;;;;;20.34;32.47;100250.84;5032344;28;20053;-76
2021/05/23 02:42:38;;;;;;;8.20;2.67;;;;;;;20.63;31.98;100254.50;5032353;28;20033;-76
2021/05/23 02:45:06;;;;;;;4.03;1.92;;;;;;;20.66;31.96;100253.72;5031766;28;20047;-76
2021/05/23 02:47:32;;;;;;;2.72;1.60;;;;;;;20.63;31.98;100252.53;5030823;28;20368;-76
2021/05/23 02:49:57;;;;;;;3.97;1.90;;;;;;;20.75;31.80;100251.34;5032736;28;20033;-76
2021/05/23 02:52:23;;;;;;;7.65;2.30;;;;;;;20.73;31.67;100245.41;5042771;28;20049;-75
2021/05/23 02:54:49;;;;;;;6.97;2.20;;;;;;;20.72;31.77;100241.84;5041712;28;20056;-75
2021/05/23 02:57:15;;;;;;;2.47;1.70;;;;;;;20.69;31.83;100233.50;5038943;28;20021;-75
2021/05/23 02:59:42;;;;;;;3.38;1.55;;;;;;;20.72;31.72;100238.28;5032186;28;20126;-76
2021/05/23 03:02:07;;;;;;;5.85;1.85;;;;;;;20.71;31.58;100233.91;5032252;28;20152;-76
2021/05/23 03:04:33;;;;;;;3.03;1.85;;;;;;;20.73;31.78;100231.53;5035829;28;20112;-76
2021/05/23 03:06:59;;;;;;;3.95;1.83;;;;;;;20.71;31.73;100231.13;5035950;28;20640;-75
2021/05/23 03:09:25;;;;;;;2.67;1.45;;;;;;;20.71;31.65;100215.28;5034832;28;20029;-76
2021/05/23 03:11:51;;;;;;;4.82;1.60;;;;;;;20.79;31.64;100216.09;5035715;28;20025;-76
2021/05/23 03:14:16;;;;;;;7.25;1.70;;;;;;;20.76;31.53;100214.06;5035693;28;20030;-76
2021/05/23 03:16:42;;;;;;;3.33;1.77;;;;;;;20.63;31.81;100202.56;5036110;28;20021;-76
2021/05/23 03:19:08;;;;;;;5.22;2.33;;;;;;;20.74;31.57;100210.91;5035618;28;20025;-76
2021/05/23 03:21:35;;;;;;;3.15;1.58;;;;;;;20.67;31.64;100205.34;5034475;28;20519;-76
2021/05/23 03:24:01;;;;;;;3.53;1.55;;;;;;;20.68;31.64;100198.59;5035240;28;20041;-76
2021/05/23 03:26:26;;;;;;;4.35;1.40;;;;;;;20.62;31.81;100203.75;5035459;28;20434;-76
2021/05/23 03:28:52;;;;;;;4.00;1.48;;;;;;;20.55;31.89;100197.38;5035870;28;20486;-76
2021/05/23 03:31:17;;;;;;;6.82;1.88;;;;;;;20.63;31.62;100190.66;5035512;28;20036;-76
2021/05/23 03:33:43;;;;;;;3.13;1.58;;;;;;;20.57;31.71;100175.59;5035183;28;20117;-77
2021/05/23 03:36:09;;;;;;;3.92;1.48;;;;;;;20.66;31.56;100170.44;5034056;28;20035;-76
2021/05/23 03:38:35;;;;;;;2.30;1.20;;;;;;;20.48;31.77;100157.34;5034171;28;20071;-76
2021/05/23 03:41:00;;;;;;;3.30;1.40;;;;;;;20.58;31.77;100153.00;5035354;28;20037;-76
2021/05/23 03:43:26;;;;;;;4.45;1.70;;;;;;;20.62;31.59;100153.78;5035263;28;20095;-76
2021/05/23 03:45:51;;;;;;;4.97;1.40;;;;;;;20.60;31.54;100147.03;5034896;28;20018;-76
2021/05/23 03:48:17;;;;;;;3.60;1.42;;;;;;;20.54;31.58;100151.38;5035348;28;20030;-75
2021/05/23 03:50:42;;;;;;;4.22;1.50;;;;;;;20.63;31.40;100141.50;5035298;28;20112;-76
2021/05/23 03:53:08;;;;;;;3.92;1.42;;;;;;;20.59;31.45;100137.13;5035256;28;20029;-76
2021/05/23 03:55:34;;;;;;;5.85;1.27;;;;;;;20.74;31.22;100141.50;5035351;28;20397;-76
2021/05/23 03:58:00;;;;;;;4.20;1.35;;;;;;;20.69;31.44;100142.69;5035241;28;20029;-75
2021/05/23 04:00:27;;;;;;;3.28;1.20;;;;;;;20.65;31.38;100127.22;5035053;28;20026;-75
2021/05/23 04:02:54;;;;;;;3.15;1.33;;;;;;;20.60;31.50;100127.63;5035019;28;20052;-76
2021/05/23 04:05:25;;;;;;;4.32;1.75;;;;;;;20.35;31.92;100111.72;5034594;28;20064;-76
2021/05/23 04:07:51;;;;;;;6.55;1.48;;;;;;;20.49;31.61;100117.31;5034810;28;20026;-76
2021/05/23 04:10:21;;;;;;;4.95;1.50;;;;;;;20.42;32.00;100108.16;5034768;28;20032;-76
2021/05/23 04:12:49;;;;;;;2.63;1.30;;;;;;;20.59;31.44;100106.59;5034656;28;20075;-75
2021/05/23 04:15:16;;;;;;;3.58;1.20;;;;;;;20.45;31.72;100102.63;5033652;28;20029;-76
2021/05/23 04:17:43;;;;;;;2.22;1.35;;;;;;;20.55;31.59;100101.03;5034703;28;20064;-76
2021/05/23 04:20:13;;;;;;;3.13;1.33;;;;;;;20.58;31.46;100096.69;5035039;28;20079;-76
2021/05/23 04:22:38;;;;;;;;;;;;;;;20.37;31.83;100094.66;5035127;28;20029;-75
2021/05/23 04:25:08;;;;;;;5.45;1.63;;;;;;;20.65;31.42;100091.16;5034675;28;19982;-76
2021/05/23 04:27:34;;;;;;;3.03;1.13;;;;;;;20.62;31.62;100097.47;5033006;28;20029;-76
2021/05/23 04:29:59;;;;;;;5.85;1.42;;;;;;;20.57;31.61;100092.34;5034282;28;20025;-75
2021/05/23 04:32:25;;;;;;;4.25;1.90;;;;;;;20.66;31.45;100089.97;5035354;28;20033;-76
2021/05/23 04:34:51;;;;;;;4.80;1.80;;;;;;;20.60;31.75;100083.22;5034165;28;20045;-76
2021/05/23 04:37:16;;;;;;;5.43;1.45;;;;;;;20.61;31.60;100085.59;5034705;28;20025;-76
2021/05/23 04:39:43;;;;;;;4.93;1.30;;;;;;;20.67;31.77;100086.78;5036833;28;20428;-75
2021/05/23 04:42:09;;;;;;;3.88;1.27;;;;;;;20.36;32.12;100081.97;5032953;28;20058;-76
2021/05/23 04:44:35;;;;;;;6.60;1.65;;;;;;;20.50;31.84;100063.38;5034022;28;20083;-76
2021/05/23 04:47:00;;;;;;;3.88;1.27;;;;;;;20.56;31.73;100068.56;5034104;28;20167;-76
2021/05/23 04:49:26;;;;;;;2.90;1.30;;;;;;;20.58;31.80;100058.63;5033881;28;20028;-76
2021/05/23 04:51:52;;;;;;;2.53;1.02;;;;;;;20.72;31.43;100061.41;5034012;28;20030;-76
2021/05/23 04:54:17;;;;;;;2.53;1.00;;;;;;;20.78;31.44;100059.81;5033990;28;20499;-76
2021/05/23 04:56:43;;;;;;;3.83;1.52;;;;;;;20.76;31.66;100055.84;5033785;28;20126;-76
2021/05/23 04:59:08;;;;;;;2.17;1.10;;;;;;;20.71;31.80;100047.94;5034458;28;20029;-76
2021/05/23 05:01:34;;;;;;;2.42;1.00;;;;;;;20.70;31.82;100046.31;5034257;28;20022;-77
2021/05/23 05:04:01;;;;;;;6.50;1.40;;;;;;;20.73;32.17;100042.75;5033716;28;20030;-77
2021/05/23 05:06:26;;;;;;;4.75;1.10;;;;;;;20.78;31.90;100036.78;5033730;28;20076;-77
2021/05/23 05:08:52;;;;;;;2.35;1.25;;;;;;;20.41;32.45;100023.34;5034229;28;20021;-77
2021/05/23 05:11:17;;;;;;;2.65;1.17;;;;;;;19.78;33.74;100027.59;5033757;28;20025;-77
2021/05/23 05:13:43;;;;;;;3.33;1.17;;;;;;;19.93;33.66;100021.69;5033434;28;20036;-75
2021/05/23 05:16:08;;;;;;;3.50;1.10;;;;;;;20.09;33.47;100026.06;5032856;28;20033;-76
2021/05/23 05:18:35;;;;;;;1.90;1.10;;;;;;;20.57;32.70;100004.31;5030609;28;20038;-76
2021/05/23 05:21:02;;;;;;;1.67;1.00;;;;;;;20.57;32.49;100003.53;5031921;28;20033;-76
2021/05/23 05:23:28;;;;;;;5.68;1.77;;;;;;;20.75;32.31;100005.06;5031686;28;20036;-76
2021/05/23 05:25:53;;;;;;;5.85;1.55;;;;;;;20.45;32.68;99999.97;5031352;28;20029;-76
2021/05/23 05:28:19;;;;;;;4.05;1.35;;;;;;;20.77;32.22;100001.88;5032335;28;20435;-75
2021/05/23 05:30:44;;;;;;;5.90;1.80;;;;;;;20.84;32.07;99988.00;5033187;28;20080;-75
2021/05/23 05:33:10;;;;;;;8.38;1.73;;;;;;;20.95;31.80;99994.31;5033118;28;20025;-76
2021/05/23 05:35:36;;;;;;;2.30;0.80;;;;;;;20.94;31.88;99978.88;5032911;28;20029;-76
2021/05/23 05:38:02;;;;;;;2.85;1.10;;;;;;;20.70;32.33;99977.72;5033182;28;20087;-75
2021/05/23 05:40:27;;;;;;;4.72;1.33;;;;;;;20.69;32.48;99973.34;5033326;28;20021;-77
2021/05/23 05:42:53;;;;;;;3.45;1.00;;;;;;;20.93;32.09;99965.34;5033470;28;20171;-76
2021/05/23 05:45:18;;;;;;;4.00;1.15;;;;;;;21.02;32.09;99969.31;5031550;28;20033;-76
2021/05/23 05:47:44;;;;;;;4.45;1.48;;;;;;;21.09;31.92;99957.38;5033368;28;20036;-77
2021/05/23 05:50:10;;;;;;;1.55;1.20;;;;;;;21.10;32.14;99958.97;5031830;28;20032;-77
2021/05/23 05:52:36;;;;;;;2.55;1.33;;;;;;;21.17;32.05;99953.38;5033136;28;20599;-77
2021/05/23 05:55:01;;;;;;;1.85;1.13;;;;;;;21.10;32.19;99949.84;5033094;28;20109;-77
2021/05/23 05:57:27;;;;;;;2.38;1.17;;;;;;;21.14;32.34;99947.81;5032792;28;20033;-77
2021/05/23 05:59:53;;;;;;;4.72;1.50;;;;;;;20.99;32.57;99949.88;5032952;28;20033;-77
2021/05/23 06:02:19;;;;;;;5.00;2.40;;;;;;;21.11;32.48;99934.75;5032731;28;20021;-77
2021/05/23 06:04:45;;;;;;;4.50;1.10;;;;;;;20.95;32.80;99922.13;5032520;28;20112;-77
2021/05/23 06:07:10;;;;;;;7.72;1.35;;;;;;;20.96;32.82;99925.69;5031739;28;20053;-76
2021/05/23 06:09:36;;;;;;;4.72;1.48;;;;;;;21.17;32.50;99924.81;5032868;28;20021;-77
2021/05/23 06:12:01;;;;;;;3.33;1.00;;;;;;;21.23;32.44;99923.16;5032944;28;20030;-76
2021/05/23 06:14:27;;;;;;;3.38;1.55;;;;;;;21.14;32.80;99909.72;5032794;28;20025;-76
2021/05/23 06:16:53;;;;;;;4.97;1.30;;;;;;;21.09;32.99;99910.16;5031295;28;20021;-77
2021/05/23 06:19:18;;;;;;;4.20;1.20;;;;;;;21.16;32.98;99904.56;5032851;28;20029;-77
2021/05/23 06:21:44;;;;;;;3.88;1.40;;;;;;;21.07;33.22;99898.66;5033018;28;20490;-76
2021/05/23 06:24:10;;;;;;;3.88;1.23;;;;;;;21.12;33.06;99895.47;5031490;28;20518;-77
2021/05/23 06:26:36;;;;;;;5.82;1.73;;;;;;;20.95;33.70;99886.03;5032612;28;20025;-76
2021/05/23 06:29:02;;;;;;;7.55;1.40;;;;;;;21.04;33.41;99878.03;5032727;28;20109;-76
2021/05/23 06:31:27;;;;;;;2.70;0.98;;;;;;;20.86;34.01;99882.09;5031170;28;20155;-76
2021/05/23 06:33:56;;;;;;;6.55;1.60;;;;;;;21.02;33.73;99869.31;5032436;28;20125;-76
2021/05/23 06:36:21;;;;;;;5.47;1.77;;;;;;;20.90;34.32;99861.44;5032332;28;20029;-75
2021/05/23 06:38:47;;;;;;;2.97;1.45;;;;;;;20.94;34.16;99856.69;5034576;28;20052;-76
2021/05/23 06:41:12;;;;;;;4.00;1.38;;;;;;;21.30;33.63;99845.38;5036523;28;20083;-76
2021/05/23 06:43:38;;;;;;;2.97;1.05;;;;;;;21.11;34.16;99851.44;5034805;28;20029;-75
2021/05/23 06:46:03;;;;;;;3.03;1.50;;;;;;;21.15;34.21;99843.84;5036022;28;20411;-76
2021/05/23 06:48:29;;;;;;;2.15;1.17;;;;;;;21.22;34.14;99827.13;5036185;28;20028;-76
2021/05/23 06:50:55;;;;;;;5.32;1.58;;;;;;;21.14;34.56;99825.59;5036269;28;20033;-76
2021/05/23 06:53:20;;;;;;;4.65;1.70;;;;;;;21.29;34.24;99810.44;5036174;28;20028;-76
2021/05/23 06:55:47;;;;;;;6.63;1.45;;;;;;;21.23;34.48;99815.63;5036155;28;20147;-76
2021/05/23 06:58:12;;;;;;;6.85;1.52;;;;;;;21.47;34.23;99802.78;5036062;28;20033;-76
2021/05/23 07:00:38;;;;;;;4.22;1.40;;;;;;;21.43;34.56;99804.00;5035850;28;20021;-75
2021/05/23 07:03:03;;;;;;;6.07;2.13;;;;;;;21.57;34.59;99810.25;5028099;28;20041;-76
2021/05/23 07:05:29;;;;;;;9.75;3.08;;;;;;;21.70;34.57;99798.63;5032548;28;20029;-75
2021/05/23 07:07:55;;;;;;;4.82;1.08;;;;;;;21.92;34.23;99791.66;5033142;28;20063;-76
2021/05/23 07:10:20;;;;;;;5.38;1.27;;;;;;;21.85;34.83;99780.59;5033189;28;20018;-77
2021/05/23 07:12:46;;;;;;;3.88;1.77;;;;;;;22.03;34.89;99781.19;5034612;28;20510;-76
2021/05/23 07:15:11;;;;;;;5.32;2.42;;;;;;;22.18;34.63;99779.06;5035080;28;20044;-75
2021/05/23 07:17:37;;;;;;;2.83;1.17;;;;;;;22.22;34.54;99770.69;5034181;28;20091;-76
2021/05/23 07:20:04;;;;;;;3.63;1.42;;;;;;;22.43;34.51;99764.84;5033553;28;20586;-75
2021/05/23 07:22:30;;;;;;;2.13;1.10;;;;;;;22.54;34.14;99764.75;5036121;28;20029;-75
2021/05/23 07:24:55;;;;;;;3.28;1.10;;;;;;;22.37;34.69;99752.63;5035598;28;20036;-76
2021/05/23 07:27:21;;;;;;;2.42;1.00;;;;;;;22.62;34.26;99750.31;5034342;28;20096;-75
2021/05/23 07:29:46;;;;;;;4.95;1.33;;;;;;;22.20;34.65;99736.94;5034699;28;20025;-75
2021/05/23 07:32:12;;;;;;;6.28;1.50;;;;;;;22.15;34.71;99738.97;5034874;28;20052;-75
2021/05/23 07:34:37;;;;;;;2.65;1.20;;;;;;;22.45;34.24;99733.84;5028137;28;20110;-75
2021/05/23 07:37:03;;;;;;;4.78;1.52;;;;;;;22.29;34.46;99729.66;5031797;28;20037;-76
2021/05/23 07:39:28;;;;;;;2.58;1.60;;;;;;;22.29;34.32;99739.97;5031701;28;20531;-77
2021/05/23 07:41:54;;;;;;;3.92;1.55;;;;;;;22.33;34.29;99727.63;5029916;28;20033;-76
2021/05/23 07:44:20;;;;;;;4.57;1.15;;;;;;;22.46;34.04;99724.28;5031187;28;20084;-80
2021/05/23 07:46:47;;;;;;;4.68;1.15;;;;;;;22.16;34.32;99731.41;5030347;28;20021;-75
2021/05/23 07:49:13;;;;;;;4.53;1.10;;;;;;;22.31;34.04;99723.69;5027492;28;20088;-77
2021/05/23 07:51:39;;;;;;;5.88;1.45;;;;;;;22.32;34.16;99708.56;5030459;28;20033;-76
2021/05/23 07:54:05;;;;;;;6.97;1.27;;;;;;;22.27;34.43;99709.00;5030710;28;20048;-76
2021/05/23 07:56:30;;;;;;;7.57;1.77;;;;;;;22.60;33.99;99702.63;5031323;28;20476;-80
2021/05/23 07:58:56;;;;;;;4.20;1.20;;;;;;;22.70;34.01;99695.31;5030578;28;20567;-78
2021/05/23 08:01:21;;;;;;;3.53;1.20;;;;;;;21.81;36.05;99679.75;5030704;28;20021;-78
2021/05/23 08:03:47;;;;;;;4.45;1.40;;;;;;;22.35;35.29;99691.81;5029635;28;20057;-78
2021/05/23 08:06:14;;;;;;;6.28;1.90;;;;;;;22.69;34.61;99677.81;5030547;28;20237;-76
2021/05/23 08:08:40;;;;;;;9.88;1.80;;;;;;;22.67;34.86;99680.25;5029995;28;20028;-77
2021/05/23 08:11:05;;;;;;;4.68;1.85;;;;;;;22.62;35.12;99666.00;5030788;28;20045;-76
2021/05/23 08:13:31;;;;;;;5.80;1.50;;;;;;;22.33;35.66;99662.81;5030604;28;20032;-77
2021/05/23 08:15:58;;;;;;;9.30;2.47;;;;;;;22.53;35.23;99660.97;5029803;28;20037;-75
2021/05/23 08:18:30;;;;;;;4.78;1.25;;;;;;;22.69;34.95;99658.31;5029254;28;20486;-76
2021/05/23 08:21:00;;;;;;;4.20;1.40;;;;;;;22.32;35.78;99652.91;5031784;28;20446;-77
2021/05/23 08:23:27;;;;;;;5.57;1.48;;;;;;;22.48;35.50;99653.06;5035381;28;20029;-80
2021/05/23 08:25:53;;;;;;;5.60;1.60;;;;;;;22.54;35.41;99642.25;5028515;28;20475;-77
2021/05/23 08:28:21;;;;;;;5.80;1.77;;;;;;;22.68;35.21;99642.03;5033384;28;20033;-79
2021/05/23 08:30:47;;;;;;;6.30;1.70;;;;;;;22.69;35.65;99644.41;5029950;28;20396;-77
2021/05/23 08:33:13;;;;;;;5.18;1.45;;;;;;;22.48;35.88;99636.38;5033160;28;20018;-78
2021/05/23 08:35:46;;;;;;;5.72;1.50;;;;;;;22.45;35.82;99634.44;5029555;28;20061;-79
2021/05/23 08:38:15;;;;;;;7.53;2.03;;;;;;;22.48;35.92;99625.22;5029554;28;20018;-76
2021/05/23 08:40:42;;;;;;;8.00;2.85;;;;;;;22.63;35.46;99623.81;5029218;28;20036;-75
2021/05/23 08:43:09;;;;;;;2.83;1.20;;;;;;;22.83;35.12;99620.31;5028525;28;20029;-76
2021/05/23 08:45:35;;;;;;;3.80;1.52;;;;;;;22.58;35.52;99615.91;5030459;28;20033;-80
2021/05/23 08:48:05;;;;;;;11.27;2.08;;;;;;;22.74;35.16;99618.06;5029808;28;20472;-81
2021/05/23 08:50:31;;;;;;;7.70;1.80;;;;;;;22.13;36.55;99610.63;5027816;28;20033;-80
2021/05/23 08:52:59;;;;;;;8.93;2.10;;;;;;;22.67;35.48;99613.41;5031968;28;20038;-79
2021/05/23 08:55:25;;;;;;;6.50;1.52;;;;;;;22.34;36.36;99605.97;5029573;28;20466;-78
2021/05/23 08:57:53;;;;;;;11.32;1.90;;;;;;;22.44;36.10;99605.00;5030309;28;20496;-79
2021/05/23 09:00:20;;;;;;;6.95;2.15;;;;;;;22.37;36.39;99594.78;5030929;28;20045;-78
2021/05/23 09:02:58;;;;;;;3.50;1.58;;;;;;;22.38;36.67;99598.38;5028253;28;20057;-79
2021/05/23 09:05:45;;;;;;;;;;;;;;;22.47;36.74;99592.25;5043513;28;20044;-80
2021/05/23 09:08:20;;;;;;;5.50;1.60;;;;;;;22.76;35.87;99582.25;5028745;28;19921;-78
2021/05/23 09:10:49;;;;;;;6.07;1.70;;;;;;;22.65;35.97;99582.41;5027430;28;20424;-80
2021/05/23 09:13:36;;;;;;;6.50;1.63;;;;;;;22.63;36.57;99578.47;5027670;28;20383;-80
2021/05/23 09:16:07;;;;;;;8.98;1.88;;;;;;;22.55;36.87;99572.25;5030644;28;20033;-83
2021/05/23 09:18:44;;;;;;;5.65;2.00;;;;;;;22.92;36.00;99579.59;5032590;28;20087;-79
2021/05/23 09:21:11;;;;;;;6.80;1.60;;;;;;;23.00;35.80;99571.13;5029885;28;20087;-76
2021/05/23 09:23:51;;;;;;;3.30;1.50;;;;;;;22.62;36.89;99558.19;5032100;28;20021;-76
2021/05/23 09:26:41;;;;;;;7.68;2.22;;;;;;;22.84;36.46;99555.06;5032005;28;20036;-76
2021/05/23 09:29:14;;;;;;;3.95;1.67;;;;;;;22.54;36.99;99551.19;5022187;28;20056;-76
2021/05/23 09:31:40;;;;;;;10.57;2.03;;;;;;;22.76;36.66;99562.75;5031969;28;20112;-78
2021/05/23 09:34:06;;;;;;;5.07;1.70;;;;;;;22.93;36.41;99585.97;5032687;28;20049;-79
2021/05/23 09:36:46;;;;;;;4.18;1.27;;;;;;;21.84;37.76;99612.97;5032875;28;20029;-83
2021/05/23 09:39:12;;;;;;;9.77;2.10;;;;;;;21.66;36.78;99609.63;5030625;28;20505;-77
2021/05/23 09:41:38;;;;;;;7.93;2.40;;;;;;;21.25;37.03;99609.66;5025229;28;20087;-78
2021/05/23 09:44:27;;;;;;;6.68;2.13;;;;;;;21.38;36.20;99612.72;5026726;28;20069;-77
2021/05/23 09:47:02;;;;;;;7.13;1.92;;;;;;;21.20;36.53;99602.53;5018145;28;20037;-76
2021/05/23 09:49:30;;;;;;;5.75;1.85;;;;;;;21.25;36.41;99609.66;5020998;28;20013;-80
2021/05/23 09:51:57;;;;;;;2.72;1.50;;;;;;;21.30;36.54;99604.44;5023514;28;20546;-80
2021/05/23 09:54:24;;;;;;;5.15;1.83;;;;;;;21.43;36.36;99609.50;5021985;28;20356;-76
2021/05/23 09:56:50;;;;;;;6.00;2.47;;;;;;;21.36;36.57;99604.78;5022259;28;20556;-74
2021/05/23 09:59:24;;;;;;;6.10;1.55;;;;;;;21.26;37.03;99619.56;5031688;28;20391;-77
2021/05/23 10:01:50;;;;;;;4.45;1.60;;;;;;;21.01;37.51;99617.03;5027588;28;20044;-73
2021/05/23 10:04:24;;;;;;;3.28;2.03;;;;;;;20.90;37.72;99622.66;5029152;28;20392;-76
2021/05/23 10:07:01;;;;;;;5.15;1.95;;;;;;;20.79;37.73;99630.31;5028725;28;20069;-81
2021/05/23 10:09:27;;;;;;;2.60;1.60;;;;;;;20.98;37.35;99634.50;5021436;28;20082;-73
2021/05/23 10:11:53;;;;;;;3.88;1.58;;;;;;;21.05;37.29;99632.44;5023850;28;20125;-79
2021/05/23 10:14:19;;;;;;;3.65;1.63;;;;;;;20.33;38.49;99641.66;5028934;28;20033;-75
2021/05/23 10:16:50;;;;;;;3.35;1.70;;;;;;;20.52;38.23;99648.72;5030133;28;20116;-74
2021/05/23 10:19:25;;;;;;;3.55;1.27;;;;;;;20.89;37.56;99648.84;5029932;28;20108;-76
2021/05/23 10:21:51;;;;;;;5.25;1.77;;;;;;;20.97;37.21;99641.25;5028629;28;20029;-75
2021/05/23 10:24:32;;;;;;;7.35;2.47;;;;;;;20.96;37.41;99642.44;5027349;28;20518;-77
2021/05/23 10:27:01;;;;;;;7.78;2.38;;;;;;;21.13;37.14;99651.81;5026678;28;20033;-74
2021/05/23 10:29:28;;;;;;;2.22;1.52;;;;;;;21.00;37.22;99645.97;5027872;28;20032;-73
2021/05/23 10:32:07;;;;;;;15.32;2.33;;;;;;;20.82;37.66;99654.47;5029725;28;20037;-82
2021/05/23 10:34:46;;;;;;;4.53;2.05;;;;;;;20.84;37.69;99652.06;5027902;28;20037;-74
2021/05/23 10:37:13;;;;;;;6.20;2.05;;;;;;;21.27;36.80;99638.63;5025812;28;20033;-75
2021/05/23 10:39:50;;;;;;;4.93;1.70;;;;;;;21.16;36.80;99643.47;5027850;28;20079;-79
2021/05/23 10:42:16;;;;;;;4.13;1.88;;;;;;;21.57;36.17;99639.91;5020001;28;20033;-77
2021/05/23 10:44:54;;;;;;;8.63;2.40;;;;;;;21.50;36.50;99637.97;5020529;28;20040;-74
2021/05/23 10:47:26;;;;;;;3.90;1.30;;;;;;;21.42;36.53;99636.47;5022827;28;20025;-82
2021/05/23 10:49:57;;;;;;;1.50;0.90;;;;;;;21.84;35.91;99629.66;5026558;28;20056;-82
2021/05/23 10:52:28;;;;;;;5.30;1.95;;;;;;;22.03;35.58;99624.66;5027337;28;20120;-82
2021/05/23 10:55:20;;;;;;;4.10;1.80;;;;;;;22.09;35.72;99595.19;5027542;28;20369;-80
2021/05/23 10:57:48;;;;;;;10.55;2.10;;;;;;;22.30;35.41;99571.84;5024366;28;20111;-81
2021/05/23 11:00:27;;;;;;;5.70;1.95;;;;;;;22.28;35.26;99563.91;5028895;28;20894;-77
2021/05/23 11:02:56;;;;;;;5.75;1.35;;;;;;;22.30;35.15;99561.50;5029836;28;20029;-82
2021/05/23 11:05:29;;;;;;;5.82;1.63;;;;;;;22.30;35.28;99564.28;5028098;28;20033;-79
2021/05/23 11:08:07;;;;;;;3.22;1.38;;;;;;;22.42;34.94;99568.47;5027415;28;20441;-82
2021/05/23 11:10:45;;;;;;;5.80;1.98;;;;;;;22.61;34.92;99564.19;5029564;28;20013;-79
2021/05/23 11:13:14;;;;;;;2.97;1.55;;;;;;;22.61;34.57;99570.56;5024959;28;20057;-73
2021/05/23 11:15:47;;;;;;;14.57;8.20;;;;;;;22.57;34.90;99571.81;5025946;28;20079;-79
2021/05/23 11:18:21;;;;;;;2.85;1.55;;;;;;;22.88;34.72;99562.16;5027352;28;20365;-82
2021/05/23 11:20:58;;;;;;;4.43;1.65;;;;;;;22.93;34.42;99552.53;5027204;28;20021;-76
2021/05/23 11:23:24;;;;;;;6.30;1.52;;;;;;;23.02;34.21;99555.53;5025965;28;20029;-76
2021/05/23 11:25:49;;;;;;;3.67;2.47;;;;;;;22.96;33.98;99562.81;5032104;28;20030;-74
2021/05/23 11:28:20;;;;;;;4.80;2.10;;;;;;;23.04;33.86;99553.09;5032470;28;20120;-81
2021/05/23 11:30:49;;;;;;;2.03;1.23;;;;;;;23.13;33.84;99549.78;5032293;28;20100;-79
2021/05/23 11:33:15;;;;;;;4.32;2.05;;;;;;;23.08;34.01;99548.28;5032462;28;20022;-75